sensor_id;sensor_type;location;lat;lon;timestamp;P1;durP1;ratioP1;P2;durP2;ratioP2
31848;SDS011;18414;59.352;18.152;2023-02-22T00:00:51;3.47;;;2.57;;
31848;SDS011;18414;59.352;18.152;2023-02-22T00:03:21;4.17;;;2.43;;
31848;SDS011;18414;59.352;18.152;2023-02-22T00:05:49;2.70;;;2.30;;
31848;SDS011;18414;59.352;18.152;2023-02-22T00:08:20;3.50;;;2.60;;
31848;SDS011;18414;59.352;18.152;2023-02-22T00:10:47;3.27;;;2.47;;
31848;SDS011;18414;59.352;18.152;2023-02-22T00:13:15;2.70;;;2.23;;
31848;SDS011;18414;59.352;18.152;2023-02-22T00:15:43;2.97;;;2.30;;
31848;SDS011;18414;59.352;18.152;2023-02-22T00:18:09;3.30;;;2.30;;
31848;SDS011;18414;59.352;18.152;2023-02-22T00:20:37;3.67;;;2.40;;
31848;SDS011;18414;59.352;18.152;2023-02-22T00:23:03;2.97;;;2.20;;
31848;SDS011;18414;59.352;18.152;2023-02-22T00:25:31;3.40;;;2.47;;
31848;SDS011;18414;59.352;18.152;2023-02-22T00:27:57;3.80;;;2.40;;
31848;SDS011;18414;59.352;18.152;2023-02-22T00:30:24;2.80;;;2.20;;
31848;SDS011;18414;59.352;18.152;2023-02-22T00:32:52;3.10;;;2.20;;
31848;SDS011;18414;59.352;18.152;2023-02-22T00:35:20;3.10;;;2.30;;
31848;SDS011;18414;59.352;18.152;2023-02-22T00:37:47;3.10;;;2.40;;
31848;SDS011;18414;59.352;18.152;2023-02-22T00:40:14;3.20;;;2.30;;
31848;SDS011;18414;59.352;18.152;2023-02-22T00:42:42;3.37;;;2.33;;
31848;SDS011;18414;59.352;18.152;2023-02-22T00:45:08;2.80;;;2.23;;
31848;SDS011;18414;59.352;18.152;2023-02-22T00:47:33;2.83;;;2.10;;
31848;SDS011;18414;59.352;18.152;2023-02-22T00:49:59;1.93;;;1.70;;
31848;SDS011;18414;59.352;18.152;2023-02-22T00:52:25;3.33;;;2.40;;
31848;SDS011;18414;59.352;18.152;2023-02-22T00:54:52;2.93;;;2.17;;
31848;SDS011;18414;59.352;18.152;2023-02-22T00:57:18;3.17;;;2.37;;
31848;SDS011;18414;59.352;18.152;2023-02-22T00:59:44;3.10;;;2.60;;
31848;SDS011;18414;59.352;18.152;2023-02-22T01:02:10;3.47;;;2.50;;
31848;SDS011;18414;59.352;18.152;2023-02-22T01:04:35;3.17;;;2.23;;
31848;SDS011;18414;59.352;18.152;2023-02-22T01:07:00;4.20;;;2.67;;
31848;SDS011;18414;59.352;18.152;2023-02-22T01:09:26;3.20;;;2.50;;
31848;SDS011;18414;59.352;18.152;2023-02-22T01:11:51;2.40;;;2.20;;
31848;SDS011;18414;59.352;18.152;2023-02-22T01:14:19;2.77;;;2.17;;
31848;SDS011;18414;59.352;18.152;2023-02-22T01:16:46;2.50;;;2.07;;
31848;SDS011;18414;59.352;18.152;2023-02-22T01:19:12;2.60;;;1.90;;
31848;SDS011;18414;59.352;18.152;2023-02-22T01:21:38;2.93;;;2.20;;
31848;SDS011;18414;59.352;18.152;2023-02-22T01:24:04;3.07;;;2.33;;
31848;SDS011;18414;59.352;18.152;2023-02-22T01:26:30;3.13;;;2.60;;
31848;SDS011;18414;59.352;18.152;2023-02-22T01:28:55;3.93;;;2.33;;
31848;SDS011;18414;59.352;18.152;2023-02-22T01:31:21;2.93;;;2.60;;
31848;SDS011;18414;59.352;18.152;2023-02-22T01:33:47;3.03;;;2.57;;
31848;SDS011;18414;59.352;18.152;2023-02-22T01:36:14;3.00;;;2.23;;
31848;SDS011;18414;59.352;18.152;2023-02-22T01:38:40;3.10;;;2.20;;
31848;SDS011;18414;59.352;18.152;2023-02-22T01:41:05;3.53;;;2.50;;
31848;SDS011;18414;59.352;18.152;2023-02-22T01:43:31;3.73;;;2.50;;
31848;SDS011;18414;59.352;18.152;2023-02-22T01:46:03;3.60;;;2.53;;
31848;SDS011;18414;59.352;18.152;2023-02-22T01:48:48;3.37;;;2.60;;
31848;SDS011;18414;59.352;18.152;2023-02-22T01:51:20;4.63;;;2.47;;
31848;SDS011;18414;59.352;18.152;2023-02-22T01:56:14;2.97;;;2.17;;
31848;SDS011;18414;59.352;18.152;2023-02-22T01:58:40;3.03;;;2.43;;
31848;SDS011;18414;59.352;18.152;2023-02-22T02:01:07;2.87;;;2.33;;
31848;SDS011;18414;59.352;18.152;2023-02-22T02:03:33;2.90;;;2.37;;
31848;SDS011;18414;59.352;18.152;2023-02-22T02:06:01;2.53;;;2.07;;
31848;SDS011;18414;59.352;18.152;2023-02-22T02:08:30;2.83;;;2.20;;
31848;SDS011;18414;59.352;18.152;2023-02-22T02:11:06;5.00;;;2.40;;
31848;SDS011;18414;59.352;18.152;2023-02-22T02:13:32;2.90;;;2.10;;
31848;SDS011;18414;59.352;18.152;2023-02-22T02:15:58;3.37;;;2.37;;
31848;SDS011;18414;59.352;18.152;2023-02-22T02:18:23;2.57;;;1.93;;
31848;SDS011;18414;59.352;18.152;2023-02-22T02:21:07;3.07;;;2.20;;
31848;SDS011;18414;59.352;18.152;2023-02-22T02:32:34;3.07;;;2.07;;
31848;SDS011;18414;59.352;18.152;2023-02-22T02:35:06;2.83;;;2.07;;
31848;SDS011;18414;59.352;18.152;2023-02-22T02:40:52;2.93;;;2.10;;
31848;SDS011;18414;59.352;18.152;2023-02-22T02:43:30;3.33;;;2.23;;
31848;SDS011;18414;59.352;18.152;2023-02-22T02:48:51;2.93;;;2.40;;
31848;SDS011;18414;59.352;18.152;2023-02-22T02:51:20;2.93;;;2.10;;
31848;SDS011;18414;59.352;18.152;2023-02-22T02:53:47;2.83;;;2.10;;
31848;SDS011;18414;59.352;18.152;2023-02-22T02:56:13;3.17;;;2.30;;
31848;SDS011;18414;59.352;18.152;2023-02-22T02:58:45;3.00;;;2.30;;
31848;SDS011;18414;59.352;18.152;2023-02-22T03:01:13;2.50;;;2.23;;
31848;SDS011;18414;59.352;18.152;2023-02-22T03:03:48;2.73;;;2.17;;
31848;SDS011;18414;59.352;18.152;2023-02-22T03:09:29;2.47;;;1.80;;
31848;SDS011;18414;59.352;18.152;2023-02-22T03:20:08;2.20;;;2.00;;
31848;SDS011;18414;59.352;18.152;2023-02-22T03:23:43;3.03;;;2.10;;
31848;SDS011;18414;59.352;18.152;2023-02-22T03:25:50;2.73;;;2.23;;
31848;SDS011;18414;59.352;18.152;2023-02-22T03:28:18;3.63;;;2.57;;
31848;SDS011;18414;59.352;18.152;2023-02-22T03:33:29;2.83;;;2.10;;
31848;SDS011;18414;59.352;18.152;2023-02-22T03:36:02;2.73;;;2.40;;
31848;SDS011;18414;59.352;18.152;2023-02-22T03:38:34;3.70;;;2.20;;
31848;SDS011;18414;59.352;18.152;2023-02-22T03:41:01;3.43;;;2.30;;
31848;SDS011;18414;59.352;18.152;2023-02-22T03:43:29;3.30;;;2.40;;
31848;SDS011;18414;59.352;18.152;2023-02-22T03:45:56;2.70;;;2.40;;
31848;SDS011;18414;59.352;18.152;2023-02-22T03:48:24;2.77;;;2.03;;
31848;SDS011;18414;59.352;18.152;2023-02-22T03:50:51;3.63;;;2.30;;
31848;SDS011;18414;59.352;18.152;2023-02-22T03:53:17;3.50;;;2.50;;
31848;SDS011;18414;59.352;18.152;2023-02-22T03:55:43;3.40;;;2.33;;
31848;SDS011;18414;59.352;18.152;2023-02-22T03:58:10;2.33;;;2.00;;
31848;SDS011;18414;59.352;18.152;2023-02-22T04:00:37;4.00;;;2.03;;
31848;SDS011;18414;59.352;18.152;2023-02-22T04:03:02;2.97;;;2.57;;
31848;SDS011;18414;59.352;18.152;2023-02-22T04:05:28;3.63;;;2.60;;
31848;SDS011;18414;59.352;18.152;2023-02-22T04:07:54;3.50;;;2.70;;
31848;SDS011;18414;59.352;18.152;2023-02-22T04:10:20;3.90;;;2.27;;
31848;SDS011;18414;59.352;18.152;2023-02-22T04:12:46;3.50;;;2.60;;
31848;SDS011;18414;59.352;18.152;2023-02-22T04:15:13;3.30;;;2.60;;
31848;SDS011;18414;59.352;18.152;2023-02-22T04:17:40;2.43;;;1.97;;
31848;SDS011;18414;59.352;18.152;2023-02-22T04:20:05;3.13;;;2.50;;
31848;SDS011;18414;59.352;18.152;2023-02-22T04:22:31;3.10;;;2.23;;
31848;SDS011;18414;59.352;18.152;2023-02-22T04:24:57;4.13;;;2.53;;
31848;SDS011;18414;59.352;18.152;2023-02-22T04:27:22;3.40;;;2.40;;
31848;SDS011;18414;59.352;18.152;2023-02-22T04:29:47;2.73;;;2.37;;
31848;SDS011;18414;59.352;18.152;2023-02-22T04:32:13;2.80;;;2.43;;
31848;SDS011;18414;59.352;18.152;2023-02-22T04:34:39;2.87;;;2.40;;
31848;SDS011;18414;59.352;18.152;2023-02-22T04:37:05;3.47;;;2.50;;
31848;SDS011;18414;59.352;18.152;2023-02-22T04:39:31;3.90;;;2.60;;
31848;SDS011;18414;59.352;18.152;2023-02-22T04:41:57;3.37;;;2.50;;
31848;SDS011;18414;59.352;18.152;2023-02-22T04:44:22;3.60;;;2.60;;
31848;SDS011;18414;59.352;18.152;2023-02-22T04:46:47;3.80;;;2.80;;
31848;SDS011;18414;59.352;18.152;2023-02-22T04:49:12;4.63;;;2.90;;
31848;SDS011;18414;59.352;18.152;2023-02-22T04:51:38;2.90;;;2.30;;
31848;SDS011;18414;59.352;18.152;2023-02-22T04:54:03;3.00;;;2.40;;
31848;SDS011;18414;59.352;18.152;2023-02-22T04:56:28;3.87;;;2.73;;
31848;SDS011;18414;59.352;18.152;2023-02-22T04:58:54;3.33;;;2.00;;
31848;SDS011;18414;59.352;18.152;2023-02-22T05:01:19;2.37;;;1.97;;
31848;SDS011;18414;59.352;18.152;2023-02-22T05:03:45;2.57;;;2.13;;
31848;SDS011;18414;59.352;18.152;2023-02-22T05:06:10;3.83;;;2.60;;
31848;SDS011;18414;59.352;18.152;2023-02-22T05:08:36;3.23;;;2.30;;
31848;SDS011;18414;59.352;18.152;2023-02-22T05:11:02;3.10;;;2.43;;
31848;SDS011;18414;59.352;18.152;2023-02-22T05:13:27;3.23;;;2.63;;
31848;SDS011;18414;59.352;18.152;2023-02-22T05:15:52;3.83;;;2.83;;
31848;SDS011;18414;59.352;18.152;2023-02-22T05:18:18;3.80;;;2.87;;
31848;SDS011;18414;59.352;18.152;2023-02-22T05:20:43;6.23;;;3.30;;
31848;SDS011;18414;59.352;18.152;2023-02-22T05:23:09;4.40;;;3.37;;
31848;SDS011;18414;59.352;18.152;2023-02-22T05:25:34;3.87;;;3.33;;
31848;SDS011;18414;59.352;18.152;2023-02-22T05:28:01;4.33;;;3.30;;
31848;SDS011;18414;59.352;18.152;2023-02-22T05:30:29;4.43;;;3.00;;
31848;SDS011;18414;59.352;18.152;2023-02-22T05:32:59;5.53;;;3.40;;
31848;SDS011;18414;59.352;18.152;2023-02-22T05:35:24;4.93;;;3.30;;
31848;SDS011;18414;59.352;18.152;2023-02-22T05:37:50;4.07;;;3.23;;
31848;SDS011;18414;59.352;18.152;2023-02-22T05:40:16;7.30;;;3.50;;
31848;SDS011;18414;59.352;18.152;2023-02-22T05:42:43;7.30;;;3.37;;
31848;SDS011;18414;59.352;18.152;2023-02-22T05:45:10;4.83;;;3.07;;
31848;SDS011;18414;59.352;18.152;2023-02-22T05:47:37;5.27;;;3.17;;
31848;SDS011;18414;59.352;18.152;2023-02-22T05:50:02;4.47;;;3.57;;
31848;SDS011;18414;59.352;18.152;2023-02-22T05:52:28;5.93;;;3.70;;
31848;SDS011;18414;59.352;18.152;2023-02-22T05:54:53;5.27;;;3.17;;
31848;SDS011;18414;59.352;18.152;2023-02-22T05:57:19;5.53;;;3.97;;
31848;SDS011;18414;59.352;18.152;2023-02-22T05:59:44;5.43;;;3.80;;
31848;SDS011;18414;59.352;18.152;2023-02-22T06:02:09;5.90;;;3.70;;
31848;SDS011;18414;59.352;18.152;2023-02-22T06:04:35;4.57;;;3.50;;
31848;SDS011;18414;59.352;18.152;2023-02-22T06:07:00;6.73;;;3.53;;
31848;SDS011;18414;59.352;18.152;2023-02-22T06:09:25;6.77;;;3.90;;
31848;SDS011;18414;59.352;18.152;2023-02-22T06:11:51;5.10;;;3.83;;
31848;SDS011;18414;59.352;18.152;2023-02-22T06:14:16;5.00;;;3.47;;
31848;SDS011;18414;59.352;18.152;2023-02-22T06:16:41;5.17;;;3.80;;
31848;SDS011;18414;59.352;18.152;2023-02-22T06:19:07;5.53;;;3.43;;
31848;SDS011;18414;59.352;18.152;2023-02-22T06:21:32;5.50;;;3.33;;
31848;SDS011;18414;59.352;18.152;2023-02-22T06:23:58;6.33;;;3.20;;
31848;SDS011;18414;59.352;18.152;2023-02-22T06:26:23;4.87;;;3.53;;
31848;SDS011;18414;59.352;18.152;2023-02-22T06:28:48;6.27;;;3.43;;
31848;SDS011;18414;59.352;18.152;2023-02-22T06:31:14;5.30;;;3.43;;
31848;SDS011;18414;59.352;18.152;2023-02-22T06:33:39;5.30;;;3.67;;
31848;SDS011;18414;59.352;18.152;2023-02-22T06:36:05;5.50;;;3.63;;
31848;SDS011;18414;59.352;18.152;2023-02-22T06:38:31;5.23;;;3.97;;
31848;SDS011;18414;59.352;18.152;2023-02-22T06:40:57;5.00;;;3.63;;
31848;SDS011;18414;59.352;18.152;2023-02-22T06:43:22;5.07;;;3.70;;
31848;SDS011;18414;59.352;18.152;2023-02-22T06:45:48;5.43;;;4.10;;
31848;SDS011;18414;59.352;18.152;2023-02-22T06:48:14;5.17;;;3.57;;
31848;SDS011;18414;59.352;18.152;2023-02-22T06:50:39;5.80;;;3.87;;
31848;SDS011;18414;59.352;18.152;2023-02-22T06:53:05;5.43;;;3.77;;
31848;SDS011;18414;59.352;18.152;2023-02-22T06:55:31;4.80;;;3.53;;
31848;SDS011;18414;59.352;18.152;2023-02-22T06:57:59;6.30;;;4.10;;
31848;SDS011;18414;59.352;18.152;2023-02-22T07:00:25;4.90;;;3.60;;
31848;SDS011;18414;59.352;18.152;2023-02-22T07:02:51;7.30;;;3.80;;
31848;SDS011;18414;59.352;18.152;2023-02-22T07:05:18;4.63;;;3.30;;
31848;SDS011;18414;59.352;18.152;2023-02-22T07:07:44;5.00;;;3.60;;
31848;SDS011;18414;59.352;18.152;2023-02-22T07:13:05;5.70;;;3.70;;
31848;SDS011;18414;59.352;18.152;2023-02-22T07:15:32;5.10;;;3.30;;
31848;SDS011;18414;59.352;18.152;2023-02-22T07:17:58;5.30;;;3.83;;
31848;SDS011;18414;59.352;18.152;2023-02-22T07:20:25;5.47;;;3.63;;
31848;SDS011;18414;59.352;18.152;2023-02-22T07:22:51;5.75;;;4.20;;
31848;SDS011;18414;59.352;18.152;2023-02-22T07:25:16;5.67;;;3.63;;
31848;SDS011;18414;59.352;18.152;2023-02-22T07:27:43;5.23;;;3.63;;
31848;SDS011;18414;59.352;18.152;2023-02-22T07:30:19;5.53;;;3.60;;
31848;SDS011;18414;59.352;18.152;2023-02-22T07:32:50;6.67;;;4.03;;
31848;SDS011;18414;59.352;18.152;2023-02-22T07:35:18;6.30;;;3.90;;
31848;SDS011;18414;59.352;18.152;2023-02-22T07:37:45;5.70;;;3.50;;
31848;SDS011;18414;59.352;18.152;2023-02-22T07:40:11;4.80;;;3.43;;
31848;SDS011;18414;59.352;18.152;2023-02-22T07:42:53;4.90;;;3.20;;
31848;SDS011;18414;59.352;18.152;2023-02-22T07:45:23;6.30;;;3.87;;
31848;SDS011;18414;59.352;18.152;2023-02-22T07:47:49;7.22;;;4.07;;
31848;SDS011;18414;59.352;18.152;2023-02-22T07:50:15;5.67;;;3.73;;
31848;SDS011;18414;59.352;18.152;2023-02-22T07:52:45;4.93;;;4.18;;
31848;SDS011;18414;59.352;18.152;2023-02-22T07:55:18;4.50;;;3.73;;
31848;SDS011;18414;59.352;18.152;2023-02-22T07:57:44;5.00;;;3.57;;
31848;SDS011;18414;59.352;18.152;2023-02-22T08:00:11;5.67;;;3.73;;
31848;SDS011;18414;59.352;18.152;2023-02-22T08:02:38;4.23;;;3.10;;
31848;SDS011;18414;59.352;18.152;2023-02-22T08:05:08;5.60;;;3.60;;
31848;SDS011;18414;59.352;18.152;2023-02-22T08:07:35;5.15;;;4.20;;
31848;SDS011;18414;59.352;18.152;2023-02-22T08:10:01;4.37;;;3.27;;
31848;SDS011;18414;59.352;18.152;2023-02-22T08:12:30;5.93;;;3.80;;
31848;SDS011;18414;59.352;18.152;2023-02-22T08:14:56;6.07;;;3.80;;
31848;SDS011;18414;59.352;18.152;2023-02-22T08:17:22;3.83;;;3.43;;
31848;SDS011;18414;59.352;18.152;2023-02-22T08:19:47;4.90;;;3.13;;
31848;SDS011;18414;59.352;18.152;2023-02-22T08:22:12;5.73;;;3.70;;
31848;SDS011;18414;59.352;18.152;2023-02-22T08:24:39;5.20;;;3.57;;
31848;SDS011;18414;59.352;18.152;2023-02-22T08:27:04;4.77;;;3.60;;
31848;SDS011;18414;59.352;18.152;2023-02-22T08:29:30;5.13;;;3.37;;
31848;SDS011;18414;59.352;18.152;2023-02-22T08:31:58;5.93;;;3.13;;
31848;SDS011;18414;59.352;18.152;2023-02-22T08:34:23;5.23;;;3.27;;
31848;SDS011;18414;59.352;18.152;2023-02-22T08:36:49;4.53;;;3.13;;
31848;SDS011;18414;59.352;18.152;2023-02-22T08:39:14;3.57;;;2.83;;
31848;SDS011;18414;59.352;18.152;2023-02-22T08:41:40;5.43;;;3.30;;
31848;SDS011;18414;59.352;18.152;2023-02-22T08:44:05;3.83;;;2.53;;
31848;SDS011;18414;59.352;18.152;2023-02-22T08:46:31;4.80;;;2.83;;
31848;SDS011;18414;59.352;18.152;2023-02-22T08:48:56;3.77;;;3.00;;
31848;SDS011;18414;59.352;18.152;2023-02-22T08:51:22;3.90;;;3.17;;
31848;SDS011;18414;59.352;18.152;2023-02-22T08:53:47;3.60;;;2.70;;
31848;SDS011;18414;59.352;18.152;2023-02-22T08:56:12;5.57;;;2.43;;
31848;SDS011;18414;59.352;18.152;2023-02-22T08:58:38;5.17;;;3.13;;
31848;SDS011;18414;59.352;18.152;2023-02-22T09:01:03;5.47;;;3.50;;
31848;SDS011;18414;59.352;18.152;2023-02-22T09:03:29;4.70;;;2.97;;
31848;SDS011;18414;59.352;18.152;2023-02-22T09:05:54;3.97;;;2.80;;
31848;SDS011;18414;59.352;18.152;2023-02-22T09:08:19;4.03;;;2.80;;
31848;SDS011;18414;59.352;18.152;2023-02-22T09:10:45;3.70;;;3.00;;
31848;SDS011;18414;59.352;18.152;2023-02-22T09:13:11;5.60;;;3.63;;
31848;SDS011;18414;59.352;18.152;2023-02-22T09:15:36;4.40;;;3.33;;
31848;SDS011;18414;59.352;18.152;2023-02-22T09:18:03;4.40;;;3.20;;
31848;SDS011;18414;59.352;18.152;2023-02-22T09:20:32;4.47;;;3.30;;
31848;SDS011;18414;59.352;18.152;2023-02-22T09:23:00;4.63;;;3.00;;
31848;SDS011;18414;59.352;18.152;2023-02-22T09:25:27;4.77;;;3.30;;
31848;SDS011;18414;59.352;18.152;2023-02-22T09:27:53;4.37;;;3.20;;
31848;SDS011;18414;59.352;18.152;2023-02-22T09:30:24;4.30;;;3.07;;
31848;SDS011;18414;59.352;18.152;2023-02-22T09:32:57;4.40;;;3.00;;
31848;SDS011;18414;59.352;18.152;2023-02-22T09:35:24;4.23;;;3.03;;
31848;SDS011;18414;59.352;18.152;2023-02-22T09:37:53;4.13;;;3.00;;
31848;SDS011;18414;59.352;18.152;2023-02-22T09:40:23;3.73;;;2.73;;
31848;SDS011;18414;59.352;18.152;2023-02-22T09:43:05;5.80;;;3.13;;
31848;SDS011;18414;59.352;18.152;2023-02-22T09:51:22;3.97;;;3.13;;
31848;SDS011;18414;59.352;18.152;2023-02-22T09:53:52;3.83;;;2.80;;
31848;SDS011;18414;59.352;18.152;2023-02-22T09:56:20;3.80;;;2.80;;
31848;SDS011;18414;59.352;18.152;2023-02-22T09:58:47;4.70;;;3.00;;
31848;SDS011;18414;59.352;18.152;2023-02-22T10:01:32;3.10;;;2.70;;
31848;SDS011;18414;59.352;18.152;2023-02-22T10:09:19;4.20;;;2.90;;
31848;SDS011;18414;59.352;18.152;2023-02-22T10:14:45;4.47;;;3.10;;
31848;SDS011;18414;59.352;18.152;2023-02-22T10:17:35;3.53;;;2.83;;
31848;SDS011;18414;59.352;18.152;2023-02-22T10:20:17;3.90;;;2.70;;
31848;SDS011;18414;59.352;18.152;2023-02-22T10:25:36;4.63;;;3.13;;
31848;SDS011;18414;59.352;18.152;2023-02-22T10:28:14;3.77;;;2.80;;
31848;SDS011;18414;59.352;18.152;2023-02-22T10:30:44;4.70;;;3.23;;
31848;SDS011;18414;59.352;18.152;2023-02-22T10:33:23;4.10;;;3.07;;
31848;SDS011;18414;59.352;18.152;2023-02-22T10:35:53;3.97;;;2.87;;
31848;SDS011;18414;59.352;18.152;2023-02-22T10:38:20;4.30;;;3.10;;
31848;SDS011;18414;59.352;18.152;2023-02-22T10:40:58;4.80;;;3.00;;
31848;SDS011;18414;59.352;18.152;2023-02-22T10:43:26;4.20;;;2.70;;
31848;SDS011;18414;59.352;18.152;2023-02-22T10:45:52;3.80;;;2.70;;
31848;SDS011;18414;59.352;18.152;2023-02-22T10:48:20;4.40;;;3.50;;
31848;SDS011;18414;59.352;18.152;2023-02-22T10:50:46;4.00;;;2.97;;
31848;SDS011;18414;59.352;18.152;2023-02-22T10:53:12;3.90;;;3.00;;
31848;SDS011;18414;59.352;18.152;2023-02-22T11:01:22;4.13;;;2.70;;
31848;SDS011;18414;59.352;18.152;2023-02-22T11:06:31;3.80;;;2.90;;
31848;SDS011;18414;59.352;18.152;2023-02-22T11:09:08;3.60;;;2.93;;
31848;SDS011;18414;59.352;18.152;2023-02-22T11:11:38;4.57;;;3.20;;
31848;SDS011;18414;59.352;18.152;2023-02-22T11:14:05;4.27;;;2.83;;
31848;SDS011;18414;59.352;18.152;2023-02-22T11:19:11;3.80;;;3.00;;
31848;SDS011;18414;59.352;18.152;2023-02-22T11:21:40;5.00;;;3.30;;
31848;SDS011;18414;59.352;18.152;2023-02-22T11:24:07;4.67;;;2.93;;
31848;SDS011;18414;59.352;18.152;2023-02-22T11:26:39;4.68;;;3.65;;
31848;SDS011;18414;59.352;18.152;2023-02-22T11:29:27;4.87;;;3.20;;
31848;SDS011;18414;59.352;18.152;2023-02-22T11:31:57;3.70;;;2.90;;
31848;SDS011;18414;59.352;18.152;2023-02-22T11:34:27;4.10;;;2.90;;
31848;SDS011;18414;59.352;18.152;2023-02-22T11:36:55;4.50;;;3.40;;
31848;SDS011;18414;59.352;18.152;2023-02-22T11:39:29;4.87;;;3.37;;
31848;SDS011;18414;59.352;18.152;2023-02-22T11:42:12;4.37;;;3.00;;
31848;SDS011;18414;59.352;18.152;2023-02-22T11:44:49;3.97;;;3.03;;
31848;SDS011;18414;59.352;18.152;2023-02-22T11:47:33;4.07;;;3.10;;
31848;SDS011;18414;59.352;18.152;2023-02-22T11:50:00;4.87;;;2.90;;
31848;SDS011;18414;59.352;18.152;2023-02-22T11:57:39;4.33;;;3.00;;
31848;SDS011;18414;59.352;18.152;2023-02-22T12:03:18;3.87;;;2.83;;
31848;SDS011;18414;59.352;18.152;2023-02-22T12:06:17;4.43;;;3.17;;
31848;SDS011;18414;59.352;18.152;2023-02-22T12:17:32;4.83;;;3.23;;
31848;SDS011;18414;59.352;18.152;2023-02-22T12:20:23;4.73;;;3.33;;
31848;SDS011;18414;59.352;18.152;2023-02-22T12:23:11;6.07;;;3.57;;
31848;SDS011;18414;59.352;18.152;2023-02-22T12:25:55;5.60;;;3.50;;
31848;SDS011;18414;59.352;18.152;2023-02-22T12:28:27;4.43;;;3.30;;
31848;SDS011;18414;59.352;18.152;2023-02-22T12:31:09;5.47;;;3.77;;
31848;SDS011;18414;59.352;18.152;2023-02-22T12:33:58;5.00;;;3.70;;
31848;SDS011;18414;59.352;18.152;2023-02-22T12:36:33;4.87;;;3.53;;
31848;SDS011;18414;59.352;18.152;2023-02-22T12:40:05;4.50;;;3.40;;
31848;SDS011;18414;59.352;18.152;2023-02-22T12:42:20;4.90;;;3.53;;
31848;SDS011;18414;59.352;18.152;2023-02-22T12:44:56;5.90;;;4.20;;
31848;SDS011;18414;59.352;18.152;2023-02-22T12:47:28;4.97;;;3.60;;
31848;SDS011;18414;59.352;18.152;2023-02-22T12:49:58;4.80;;;3.83;;
31848;SDS011;18414;59.352;18.152;2023-02-22T12:55:15;4.27;;;3.40;;
31848;SDS011;18414;59.352;18.152;2023-02-22T13:00:46;6.13;;;3.57;;
31848;SDS011;18414;59.352;18.152;2023-02-22T13:05:39;4.80;;;3.50;;
31848;SDS011;18414;59.352;18.152;2023-02-22T13:10:52;6.13;;;3.43;;
31848;SDS011;18414;59.352;18.152;2023-02-22T13:13:35;3.87;;;3.20;;
31848;SDS011;18414;59.352;18.152;2023-02-22T13:18:44;6.30;;;3.70;;
31848;SDS011;18414;59.352;18.152;2023-02-22T13:21:27;5.40;;;3.60;;
31848;SDS011;18414;59.352;18.152;2023-02-22T13:24:00;5.53;;;3.57;;
31848;SDS011;18414;59.352;18.152;2023-02-22T13:26:33;5.70;;;3.53;;
31848;SDS011;18414;59.352;18.152;2023-02-22T13:29:09;6.83;;;4.20;;
31848;SDS011;18414;59.352;18.152;2023-02-22T13:35:02;5.47;;;3.50;;
31848;SDS011;18414;59.352;18.152;2023-02-22T13:38:18;5.13;;;3.50;;
31848;SDS011;18414;59.352;18.152;2023-02-22T13:43:29;5.70;;;3.90;;
31848;SDS011;18414;59.352;18.152;2023-02-22T13:57:20;5.87;;;3.60;;
31848;SDS011;18414;59.352;18.152;2023-02-22T14:02:59;4.47;;;3.60;;
31848;SDS011;18414;59.352;18.152;2023-02-22T14:08:02;4.97;;;3.60;;
31848;SDS011;18414;59.352;18.152;2023-02-22T14:10:38;7.83;;;3.50;;
31848;SDS011;18414;59.352;18.152;2023-02-22T14:13:09;4.10;;;3.20;;
31848;SDS011;18414;59.352;18.152;2023-02-22T14:21:06;8.07;;;3.57;;
31848;SDS011;18414;59.352;18.152;2023-02-22T14:34:09;4.30;;;3.60;;
31848;SDS011;18414;59.352;18.152;2023-02-22T14:36:43;5.73;;;4.03;;
31848;SDS011;18414;59.352;18.152;2023-02-22T14:39:17;6.83;;;4.37;;
31848;SDS011;18414;59.352;18.152;2023-02-22T14:42:07;5.07;;;3.67;;
31848;SDS011;18414;59.352;18.152;2023-02-22T14:44:43;5.57;;;3.90;;
31848;SDS011;18414;59.352;18.152;2023-02-22T14:47:23;5.53;;;3.77;;
31848;SDS011;18414;59.352;18.152;2023-02-22T14:49:54;4.90;;;3.70;;
31848;SDS011;18414;59.352;18.152;2023-02-22T14:52:25;6.40;;;4.10;;
31848;SDS011;18414;59.352;18.152;2023-02-22T14:55:01;9.30;;;4.13;;
31848;SDS011;18414;59.352;18.152;2023-02-22T14:57:33;5.07;;;3.73;;
31848;SDS011;18414;59.352;18.152;2023-02-22T15:00:20;5.07;;;3.87;;
31848;SDS011;18414;59.352;18.152;2023-02-22T15:02:55;6.07;;;3.80;;
31848;SDS011;18414;59.352;18.152;2023-02-22T15:05:23;6.00;;;3.83;;
31848;SDS011;18414;59.352;18.152;2023-02-22T15:07:52;6.17;;;4.10;;
31848;SDS011;18414;59.352;18.152;2023-02-22T15:15:32;6.87;;;4.47;;
31848;SDS011;18414;59.352;18.152;2023-02-22T15:17:59;6.83;;;4.40;;
31848;SDS011;18414;59.352;18.152;2023-02-22T15:20:25;5.70;;;4.07;;
31848;SDS011;18414;59.352;18.152;2023-02-22T15:22:51;5.20;;;4.23;;
31848;SDS011;18414;59.352;18.152;2023-02-22T15:25:24;4.57;;;3.77;;
31848;SDS011;18414;59.352;18.152;2023-02-22T15:27:50;6.77;;;4.17;;
31848;SDS011;18414;59.352;18.152;2023-02-22T15:30:23;5.30;;;4.00;;
31848;SDS011;18414;59.352;18.152;2023-02-22T15:32:51;6.60;;;4.20;;
31848;SDS011;18414;59.352;18.152;2023-02-22T15:40:35;5.93;;;4.27;;
31848;SDS011;18414;59.352;18.152;2023-02-22T15:43:05;4.93;;;4.00;;
31848;SDS011;18414;59.352;18.152;2023-02-22T15:45:34;5.13;;;4.07;;
31848;SDS011;18414;59.352;18.152;2023-02-22T15:48:07;5.90;;;4.40;;
31848;SDS011;18414;59.352;18.152;2023-02-22T15:50:33;8.17;;;5.17;;
31848;SDS011;18414;59.352;18.152;2023-02-22T15:53:21;8.17;;;5.03;;
31848;SDS011;18414;59.352;18.152;2023-02-22T15:55:54;7.33;;;4.90;;
31848;SDS011;18414;59.352;18.152;2023-02-22T15:58:21;6.37;;;4.33;;
31848;SDS011;18414;59.352;18.152;2023-02-22T16:00:50;5.67;;;4.40;;
31848;SDS011;18414;59.352;18.152;2023-02-22T16:03:24;5.07;;;3.73;;
31848;SDS011;18414;59.352;18.152;2023-02-22T16:05:57;6.83;;;4.53;;
31848;SDS011;18414;59.352;18.152;2023-02-22T16:08:43;7.03;;;4.43;;
31848;SDS011;18414;59.352;18.152;2023-02-22T16:11:20;6.70;;;4.57;;
31848;SDS011;18414;59.352;18.152;2023-02-22T16:13:50;6.40;;;4.37;;
31848;SDS011;18414;59.352;18.152;2023-02-22T16:16:24;6.90;;;4.30;;
31848;SDS011;18414;59.352;18.152;2023-02-22T16:18:53;6.97;;;4.90;;
31848;SDS011;18414;59.352;18.152;2023-02-22T16:21:58;5.40;;;3.90;;
31848;SDS011;18414;59.352;18.152;2023-02-22T16:24:31;7.80;;;4.47;;
31848;SDS011;18414;59.352;18.152;2023-02-22T16:27:02;6.20;;;4.30;;
31848;SDS011;18414;59.352;18.152;2023-02-22T16:30:02;6.23;;;4.23;;
31848;SDS011;18414;59.352;18.152;2023-02-22T16:32:29;6.80;;;4.90;;
31848;SDS011;18414;59.352;18.152;2023-02-22T16:34:55;6.67;;;4.60;;
31848;SDS011;18414;59.352;18.152;2023-02-22T16:37:21;6.77;;;4.50;;
31848;SDS011;18414;59.352;18.152;2023-02-22T16:39:47;7.20;;;4.67;;
31848;SDS011;18414;59.352;18.152;2023-02-22T16:42:16;7.27;;;4.80;;
31848;SDS011;18414;59.352;18.152;2023-02-22T16:44:47;9.47;;;5.13;;
31848;SDS011;18414;59.352;18.152;2023-02-22T16:47:14;6.67;;;4.90;;
31848;SDS011;18414;59.352;18.152;2023-02-22T16:49:39;7.60;;;5.10;;
31848;SDS011;18414;59.352;18.152;2023-02-22T16:52:05;8.57;;;5.60;;
31848;SDS011;18414;59.352;18.152;2023-02-22T16:54:34;7.93;;;5.33;;
31848;SDS011;18414;59.352;18.152;2023-02-22T16:57:02;8.57;;;5.17;;
31848;SDS011;18414;59.352;18.152;2023-02-22T16:59:30;7.40;;;5.30;;
31848;SDS011;18414;59.352;18.152;2023-02-22T17:01:57;8.27;;;5.43;;
31848;SDS011;18414;59.352;18.152;2023-02-22T17:04:23;8.23;;;5.20;;
31848;SDS011;18414;59.352;18.152;2023-02-22T17:06:50;7.20;;;4.93;;
31848;SDS011;18414;59.352;18.152;2023-02-22T17:09:15;9.40;;;5.73;;